Time;durP1;ratioP1;P1;durP2;ratioP2;P2;SDS_P1;SDS_P2;PMS_P1;PMS_P2;Temp;Humidity;BMP_temperature;BMP_pressure;BME280_temperature;BME280_humidity;BME280_pressure;Samples;Min_cycle;Max_cycle;Signal;HPM_P1;HPM_P2
2021/10/18 00:01:23;;;;;;;;;12.75;12.50;;;;;;;;5061116;28;11535;-75
2021/10/18 00:03:51;;;;;;;;;14.25;11.00;;;;;;;;5064084;28;11552;-77
2021/10/18 00:06:18;;;;;;;;;8.75;6.50;;;;;;;;5062492;28;11561;-84
2021/10/18 00:08:45;;;;;;;;;13.00;10.50;;;;;;;;5062530;28;11516;-87
2021/10/18 00:11:13;;;;;;;;;15.25;13.50;;;;;;;;5063161;28;11554;-86
2021/10/18 00:13:40;;;;;;;;;11.00;10.00;;;;;;;;5065296;28;11599;-76
2021/10/18 00:16:09;;;;;;;;;14.25;13.00;;;;;;;;5067563;28;11503;-77
2021/10/18 00:18:37;;;;;;;;;10.25;10.25;;;;;;;;5067413;28;11587;-82
2021/10/18 00:21:04;;;;;;;;;11.00;11.00;;;;;;;;5066783;28;11559;-77
2021/10/18 00:23:32;;;;;;;;;12.00;12.00;;;;;;;;5066623;28;11546;-84
2021/10/18 00:25:59;;;;;;;;;10.00;10.00;;;;;;;;5067212;28;11587;-79
2021/10/18 00:28:26;;;;;;;;;17.50;14.50;;;;;;;;5063740;28;11664;-86
2021/10/18 00:30:53;;;;;;;;;12.25;10.50;;;;;;;;5065988;28;11584;-88
2021/10/18 00:33:22;;;;;;;;;10.00;8.25;;;;;;;;5065603;28;11511;-75
2021/10/18 00:35:49;;;;;;;;;7.50;7.50;;;;;;;;5063732;28;11556;-83
2021/10/18 00:38:17;;;;;;;;;11.00;10.25;;;;;;;;5066929;28;11546;-78
2021/10/18 00:40:44;;;;;;;;;16.00;12.50;;;;;;;;5065070;28;11567;-77
2021/10/18 00:43:11;;;;;;;;;12.00;12.00;;;;;;;;5066487;28;11619;-83
2021/10/18 00:45:39;;;;;;;;;16.25;13.75;;;;;;;;5065532;28;11657;-82
2021/10/18 00:48:06;;;;;;;;;12.50;10.50;;;;;;;;5065697;28;12380;-83
2021/10/18 00:50:36;;;;;;;;;11.00;11.00;;;;;;;;5063134;28;11529;-80
2021/10/18 00:53:03;;;;;;;;;13.25;11.00;;;;;;;;5064374;28;11656;-84
2021/10/18 00:55:30;;;;;;;;;14.00;11.75;;;;;;;;5066338;28;11542;-83
2021/10/18 00:57:58;;;;;;;;;15.50;12.00;;;;;;;;5064707;28;12312;-82
2021/10/18 01:00:25;;;;;;;;;13.50;10.00;;;;;;;;5060940;28;11489;-78
2021/10/18 01:02:53;;;;;;;;;15.50;10.75;;;;;;;;5066127;28;11559;-81
2021/10/18 01:05:20;;;;;;;;;10.00;10.00;;;;;;;;5066409;28;11633;-79
2021/10/18 01:07:49;;;;;;;;;10.00;10.00;;;;;;;;5064712;28;11549;-84
2021/10/18 01:10:17;;;;;;;;;10.00;10.00;;;;;;;;5064845;28;11574;-82
2021/10/18 01:12:45;;;;;;;;;17.00;14.25;;;;;;;;5066326;28;12431;-83
2021/10/18 01:15:12;;;;;;;;;6.50;6.50;;;;;;;;5065819;28;11534;-84
2021/10/18 01:17:39;;;;;;;;;12.00;12.00;;;;;;;;5065630;28;11550;-79
2021/10/18 01:20:11;;;;;;;;;11.50;11.50;;;;;;;;5064123;28;11599;-78
2021/10/18 01:22:41;;;;;;;;;15.75;12.25;;;;;;;;5073024;28;11550;-80
2021/10/18 01:25:09;;;;;;;;;10.50;8.00;;;;;;;;5063488;28;11616;-76
2021/10/18 01:27:36;;;;;;;;;16.00;11.75;;;;;;;;5059981;28;11563;-76
2021/10/18 01:30:05;;;;;;;;;13.75;13.75;;;;;;;;5064908;28;11627;-76
2021/10/18 01:32:32;;;;;;;;;13.25;12.25;;;;;;;;5066519;28;11677;-76
2021/10/18 01:35:00;;;;;;;;;13.50;11.00;;;;;;;;5067290;28;11668;-75
2021/10/18 01:37:27;;;;;;;;;17.50;15.50;;;;;;;;5063422;28;11559;-75
2021/10/18 01:39:56;;;;;;;;;21.00;18.00;;;;;;;;5065858;28;11564;-77
2021/10/18 01:42:23;;;;;;;;;10.00;9.00;;;;;;;;5064011;28;11730;-76
2021/10/18 01:44:51;;;;;;;;;15.00;14.75;;;;;;;;5064577;28;11530;-83
2021/10/18 01:47:18;;;;;;;;;14.75;13.75;;;;;;;;5064341;28;11544;-88
2021/10/18 01:49:45;;;;;;;;;13.75;10.75;;;;;;;;5063632;28;11562;-79
2021/10/18 01:52:12;;;;;;;;;13.00;13.00;;;;;;;;5065444;28;11574;-78
2021/10/18 01:54:40;;;;;;;;;13.00;13.00;;;;;;;;5063913;28;11558;-76
2021/10/18 01:57:09;;;;;;;;;12.50;12.50;;;;;;;;5064465;28;11631;-89
2021/10/18 01:59:36;;;;;;;;;10.25;10.25;;;;;;;;5062591;28;11582;-77
2021/10/18 02:02:04;;;;;;;;;14.50;13.25;;;;;;;;5063188;28;11586;-82
2021/10/18 02:04:31;;;;;;;;;14.75;13.00;;;;;;;;5064553;28;11552;-90
2021/10/18 02:06:58;;;;;;;;;16.75;16.75;;;;;;;;5064298;28;11560;-84
2021/10/18 02:09:25;;;;;;;;;21.50;13.00;;;;;;;;5063946;28;11585;-78
2021/10/18 02:11:53;;;;;;;;;10.25;10.25;;;;;;;;5066092;28;11626;-77
2021/10/18 02:14:21;;;;;;;;;16.75;15.50;;;;;;;;5064952;28;11666;-89
2021/10/18 02:16:49;;;;;;;;;15.75;11.25;;;;;;;;5063780;28;11633;-86
2021/10/18 02:19:16;;;;;;;;;10.25;9.75;;;;;;;;5063060;28;11525;-83
2021/10/18 02:21:43;;;;;;;;;13.25;10.00;;;;;;;;5064057;28;11638;-87
2021/10/18 02:24:10;;;;;;;;;13.50;13.50;;;;;;;;5064011;28;11613;-78
2021/10/18 02:26:38;;;;;;;;;8.00;7.25;;;;;;;;5065273;28;11679;-76
2021/10/18 02:29:05;;;;;;;;;12.25;12.25;;;;;;;;5063978;28;11616;-77
2021/10/18 02:31:34;;;;;;;;;10.50;9.75;;;;;;;;5063009;28;11551;-79
2021/10/18 02:34:02;;;;;;;;;15.00;11.00;;;;;;;;5057871;28;11543;-80
2021/10/18 02:36:29;;;;;;;;;13.25;9.50;;;;;;;;5064489;28;11580;-78
2021/10/18 02:38:57;;;;;;;;;9.75;9.75;;;;;;;;5063978;28;12349;-88
2021/10/18 02:41:25;;;;;;;;;9.75;8.00;;;;;;;;5061170;28;12379;-86
2021/10/18 02:43:52;;;;;;;;;15.25;12.50;;;;;;;;5064033;28;10993;-85
2021/10/18 02:46:19;;;;;;;;;16.25;10.25;;;;;;;;5063756;28;11563;-81
2021/10/18 02:48:48;;;;;;;;;8.75;8.75;;;;;;;;5062861;28;11560;-76
2021/10/18 02:51:15;;;;;;;;;12.00;10.00;;;;;;;;5060493;28;11536;-78
2021/10/18 02:53:43;;;;;;;;;8.00;8.00;;;;;;;;5064517;28;11544;-75
2021/10/18 02:56:10;;;;;;;;;9.50;9.00;;;;;;;;5063325;28;11624;-83
2021/10/18 02:58:38;;;;;;;;;11.00;11.00;;;;;;;;5060463;28;11521;-84
2021/10/18 03:01:06;;;;;;;;;13.25;10.00;;;;;;;;5063121;28;11505;-88
2021/10/18 03:03:33;;;;;;;;;13.00;11.25;;;;;;;;5063173;28;11580;-81
2021/10/18 03:06:01;;;;;;;;;9.75;8.00;;;;;;;;5064067;28;11575;-76
2021/10/18 03:08:29;;;;;;;;;9.50;8.00;;;;;;;;5062165;28;11622;-79
2021/10/18 03:10:56;;;;;;;;;20.00;15.25;;;;;;;;5063916;28;11671;-83
2021/10/18 03:13:23;;;;;;;;;11.25;11.25;;;;;;;;5062902;28;11567;-77
2021/10/18 03:15:51;;;;;;;;;16.25;13.75;;;;;;;;5064130;28;12729;-85
2021/10/18 03:18:18;;;;;;;;;16.00;16.00;;;;;;;;5060974;28;11561;-86
2021/10/18 03:20:45;;;;;;;;;19.25;19.25;;;;;;;;5061635;28;11592;-81
2021/10/18 03:23:14;;;;;;;;;15.75;10.75;;;;;;;;5056301;28;11586;-79
2021/10/18 03:25:41;;;;;;;;;17.25;14.75;;;;;;;;5062196;28;11585;-78
2021/10/18 03:28:09;;;;;;;;;9.75;8.50;;;;;;;;5063137;28;11577;-76
2021/10/18 03:30:36;;;;;;;;;21.50;18.00;;;;;;;;5047396;28;11602;-78
2021/10/18 03:33:04;;;;;;;;;17.00;11.00;;;;;;;;5064880;28;11566;-84
2021/10/18 03:35:31;;;;;;;;;18.00;16.25;;;;;;;;5062227;28;11598;-88
2021/10/18 03:38:00;;;;;;;;;18.00;14.00;;;;;;;;5062999;28;11712;-84
2021/10/18 03:40:29;;;;;;;;;15.50;13.00;;;;;;;;5058543;28;11590;-84
2021/10/18 03:42:57;;;;;;;;;18.25;16.25;;;;;;;;5063119;28;11584;-81
2021/10/18 03:45:24;;;;;;;;;14.75;14.75;;;;;;;;5063229;28;11780;-82
2021/10/18 03:47:51;;;;;;;;;12.25;12.25;;;;;;;;5069080;28;11605;-82
2021/10/18 03:50:19;;;;;;;;;17.00;17.00;;;;;;;;5076247;28;11686;-81
2021/10/18 03:52:46;;;;;;;;;15.50;15.50;;;;;;;;5068617;28;11580;-81
2021/10/18 03:55:13;;;;;;;;;17.00;17.00;;;;;;;;5069489;28;11653;-79
2021/10/18 03:57:42;;;;;;;;;15.75;15.25;;;;;;;;5069841;28;11679;-77
2021/10/18 04:00:11;;;;;;;;;16.75;16.25;;;;;;;;5066031;28;11616;-81
2021/10/18 04:02:38;;;;;;;;;22.25;16.75;;;;;;;;5069464;28;11605;-76
2021/10/18 04:05:06;;;;;;;;;18.75;18.75;;;;;;;;5066880;28;11568;-80
2021/10/18 04:07:34;;;;;;;;;13.00;11.25;;;;;;;;5068724;28;11560;-83
2021/10/18 04:10:01;;;;;;;;;18.25;16.50;;;;;;;;5068085;28;11570;-79
2021/10/18 04:12:28;;;;;;;;;13.00;13.00;;;;;;;;5071195;28;11611;-85
2021/10/18 04:14:57;;;;;;;;;19.50;17.00;;;;;;;;5071222;28;11630;-83
2021/10/18 04:17:24;;;;;;;;;14.75;13.25;;;;;;;;5068069;28;11570;-80
2021/10/18 04:19:52;;;;;;;;;14.00;14.00;;;;;;;;5070089;28;11594;-79
2021/10/18 04:22:19;;;;;;;;;18.25;16.75;;;;;;;;5068313;28;11625;-81
2021/10/18 04:24:47;;;;;;;;;14.50;14.50;;;;;;;;5065644;28;11673;-80
2021/10/18 04:27:14;;;;;;;;;16.00;15.50;;;;;;;;5066579;28;11590;-77
2021/10/18 04:29:41;;;;;;;;;14.00;14.00;;;;;;;;5070662;28;11581;-78
2021/10/18 04:32:10;;;;;;;;;16.25;16.00;;;;;;;;5069838;28;12298;-80
2021/10/18 04:34:38;;;;;;;;;17.00;14.00;;;;;;;;5067890;28;11578;-85
2021/10/18 04:37:06;;;;;;;;;14.25;14.25;;;;;;;;5067057;28;11551;-82
2021/10/18 04:39:33;;;;;;;;;15.75;12.50;;;;;;;;5066500;28;11593;-85
2021/10/18 04:42:00;;;;;;;;;17.25;14.75;;;;;;;;5068248;28;11597;-81
2021/10/18 04:44:28;;;;;;;;;18.25;18.25;;;;;;;;5066246;28;11590;-76
2021/10/18 04:46:55;;;;;;;;;16.00;16.00;;;;;;;;5063471;28;11586;-80
2021/10/18 04:49:24;;;;;;;;;22.00;17.75;;;;;;;;5063503;28;11722;-79
2021/10/18 04:51:52;;;;;;;;;14.00;14.00;;;;;;;;5065876;28;11726;-79
2021/10/18 04:54:19;;;;;;;;;18.25;15.50;;;;;;;;5067753;28;11612;-79
2021/10/18 04:56:46;;;;;;;;;13.50;13.25;;;;;;;;5065481;28;11687;-79
2021/10/18 04:59:13;;;;;;;;;18.25;16.25;;;;;;;;5062047;28;11586;-79
2021/10/18 05:01:41;;;;;;;;;17.25;17.25;;;;;;;;5059936;28;11658;-79
2021/10/18 05:04:08;;;;;;;;;17.50;15.25;;;;;;;;5063438;28;11572;-80
2021/10/18 05:06:37;;;;;;;;;16.25;14.00;;;;;;;;5064716;28;11571;-80
2021/10/18 05:09:05;;;;;;;;;16.00;16.00;;;;;;;;5063276;28;11862;-78
2021/10/18 05:11:32;;;;;;;;;25.00;20.50;;;;;;;;5063476;28;11558;-79
2021/10/18 05:13:59;;;;;;;;;14.25;14.25;;;;;;;;5061534;28;11576;-78
2021/10/18 05:16:26;;;;;;;;;21.00;15.25;;;;;;;;5061834;28;11560;-78
2021/10/18 05:18:54;;;;;;;;;18.00;18.00;;;;;;;;5060723;28;11698;-80
2021/10/18 05:21:21;;;;;;;;;14.00;13.00;;;;;;;;5065375;28;11549;-79
2021/10/18 05:23:50;;;;;;;;;21.00;18.25;;;;;;;;5061276;28;11539;-81
2021/10/18 05:26:17;;;;;;;;;15.50;15.50;;;;;;;;5064776;28;11586;-73
2021/10/18 05:28:44;;;;;;;;;18.50;17.00;;;;;;;;5061991;28;12361;-75
2021/10/18 05:31:11;;;;;;;;;16.00;16.00;;;;;;;;5059096;28;11531;-74
2021/10/18 05:33:39;;;;;;;;;21.25;17.75;;;;;;;;5066405;28;11710;-73
2021/10/18 05:36:06;;;;;;;;;17.50;15.25;;;;;;;;5064503;28;11575;-72
2021/10/18 05:38:34;;;;;;;;;19.75;17.50;;;;;;;;5063622;28;11559;-73
2021/10/18 05:41:04;;;;;;;;;19.00;19.00;;;;;;;;5060049;28;12554;-73
2021/10/18 05:43:31;;;;;;;;;18.00;18.00;;;;;;;;5061550;28;11593;-74
2021/10/18 05:45:58;;;;;;;;;19.25;16.50;;;;;;;;5062650;28;11557;-73
2021/10/18 05:48:25;;;;;;;;;16.75;15.25;;;;;;;;5063971;28;11580;-74
2021/10/18 05:50:53;;;;;;;;;17.25;17.25;;;;;;;;5065397;28;11574;-73
2021/10/18 05:53:20;;;;;;;;;16.50;16.50;;;;;;;;5063851;28;11582;-75
2021/10/18 05:55:48;;;;;;;;;15.25;15.25;;;;;;;;5060311;28;11586;-73
2021/10/18 05:58:16;;;;;;;;;20.25;16.00;;;;;;;;5065129;28;11589;-73
2021/10/18 06:00:45;;;;;;;;;19.00;14.50;;;;;;;;5064919;28;11493;-72
2021/10/18 06:03:14;;;;;;;;;21.25;18.25;;;;;;;;5062564;28;11618;-73
2021/10/18 06:05:44;;;;;;;;;19.50;19.50;;;;;;;;5067885;28;11590;-73
2021/10/18 06:08:12;;;;;;;;;17.50;16.25;;;;;;;;5066911;28;11557;-72
2021/10/18 06:10:40;;;;;;;;;25.75;20.75;;;;;;;;5061006;28;11548;-73
2021/10/18 06:13:08;;;;;;;;;12.25;12.25;;;;;;;;5063935;28;11721;-73
2021/10/18 06:15:37;;;;;;;;;24.00;21.75;;;;;;;;5063852;28;11684;-74
2021/10/18 06:18:12;;;;;;;;;18.75;18.50;;;;;;;;5064433;28;12621;-72
2021/10/18 06:20:42;;;;;;;;;17.25;15.25;;;;;;;;5064428;28;12343;-74
2021/10/18 06:23:09;;;;;;;;;20.75;20.75;;;;;;;;5063189;28;11572;-75
2021/10/18 06:25:37;;;;;;;;;17.50;17.50;;;;;;;;5065359;28;11670;-74
2021/10/18 06:28:06;;;;;;;;;18.50;16.00;;;;;;;;5062510;28;11733;-74
2021/10/18 06:30:33;;;;;;;;;14.75;11.50;;;;;;;;5063129;28;11500;-73
2021/10/18 06:33:02;;;;;;;;;22.25;19.75;;;;;;;;5061509;28;11652;-72
2021/10/18 06:35:30;;;;;;;;;22.00;21.00;;;;;;;;5065000;28;11630;-73
2021/10/18 06:37:58;;;;;;;;;21.50;18.75;;;;;;;;5064669;28;11579;-75
2021/10/18 06:40:26;;;;;;;;;19.50;18.00;;;;;;;;5062096;28;11668;-75
2021/10/18 06:42:53;;;;;;;;;22.50;18.25;;;;;;;;5063387;28;11562;-75
2021/10/18 06:45:20;;;;;;;;;15.25;13.50;;;;;;;;5060339;28;11591;-74
2021/10/18 06:47:48;;;;;;;;;18.50;18.50;;;;;;;;5062236;28;11561;-74
2021/10/18 06:50:17;;;;;;;;;31.50;24.50;;;;;;;;5062268;28;11560;-74
2021/10/18 06:52:44;;;;;;;;;23.25;19.25;;;;;;;;5061997;28;11609;-73
2021/10/18 06:55:12;;;;;;;;;19.50;19.50;;;;;;;;5070624;28;11644;-75
2021/10/18 06:57:40;;;;;;;;;21.75;19.50;;;;;;;;5062720;28;11555;-73
2021/10/18 07:00:08;;;;;;;;;21.75;21.50;;;;;;;;5061320;28;11588;-75
2021/10/18 07:02:36;;;;;;;;;23.25;21.50;;;;;;;;5060909;28;11590;-73
2021/10/18 07:05:03;;;;;;;;;24.00;22.00;;;;;;;;5064014;28;12807;-73
2021/10/18 07:07:32;;;;;;;;;25.00;21.75;;;;;;;;5061745;28;11581;-73
2021/10/18 07:10:00;;;;;;;;;26.25;24.00;;;;;;;;5064042;28;11672;-74
2021/10/18 07:12:29;;;;;;;;;22.75;20.25;;;;;;;;5065270;28;11616;-74
2021/10/18 07:14:57;;;;;;;;;23.00;22.00;;;;;;;;5060767;28;11584;-73
2021/10/18 07:17:26;;;;;;;;;24.00;21.25;;;;;;;;5063049;28;11683;-75
2021/10/18 07:19:53;;;;;;;;;24.25;24.00;;;;;;;;5060088;28;11601;-73
2021/10/18 07:22:24;;;;;;;;;29.75;25.50;;;;;;;;5064413;28;11553;-73
2021/10/18 07:24:54;;;;;;;;;30.00;29.00;;;;;;;;5061270;28;11640;-75
2021/10/18 07:27:23;;;;;;;;;35.75;35.50;;;;;;;;5060730;28;11698;-74
2021/10/18 07:29:50;;;;;;;;;27.00;25.00;;;;;;;;5059787;28;12442;-76
2021/10/18 07:32:18;;;;;;;;;26.50;23.50;;;;;;;;5063104;28;11528;-74
2021/10/18 07:34:45;;;;;;;;;22.50;22.50;;;;;;;;5063130;28;11647;-76
2021/10/18 07:37:13;;;;;;;;;28.00;27.50;;;;;;;;5062488;28;11680;-76
2021/10/18 07:39:40;;;;;;;;;27.00;26.00;;;;;;;;5062671;28;11642;-74
2021/10/18 07:42:14;;;;;;;;;22.50;22.00;;;;;;;;5062005;28;11590;-75
2021/10/18 07:44:41;;;;;;;;;30.75;27.50;;;;;;;;5059973;28;11556;-74
2021/10/18 07:47:09;;;;;;;;;29.25;26.75;;;;;;;;5061842;28;11621;-75
2021/10/18 07:49:38;;;;;;;;;27.00;22.75;;;;;;;;5062864;28;11570;-76
2021/10/18 07:52:11;;;;;;;;;21.25;21.25;;;;;;;;5060824;28;11536;-75
2021/10/18 07:54:38;;;;;;;;;25.50;25.25;;;;;;;;5071603;28;11546;-75
2021/10/18 07:57:06;;;;;;;;;24.75;23.25;;;;;;;;5064333;28;11532;-75
2021/10/18 07:59:34;;;;;;;;;28.25;20.00;;;;;;;;5067864;28;11513;-75
2021/10/18 08:02:02;;;;;;;;;19.75;19.75;;;;;;;;5061522;28;11489;-75
2021/10/18 08:04:30;;;;;;;;;25.25;16.50;;;;;;;;5062418;28;11547;-73
2021/10/18 08:06:58;;;;;;;;;26.75;24.25;;;;;;;;5061057;28;11542;-74
2021/10/18 08:09:26;;;;;;;;;29.00;24.75;;;;;;;;5060513;28;11517;-72
2021/10/18 08:11:54;;;;;;;;;33.50;29.50;;;;;;;;5060789;28;11559;-75
2021/10/18 08:14:21;;;;;;;;;30.25;27.75;;;;;;;;5062657;28;12425;-75
2021/10/18 08:16:50;;;;;;;;;27.00;27.00;;;;;;;;5061694;28;11567;-73
2021/10/18 08:19:17;;;;;;;;;29.00;29.00;;;;;;;;5061594;28;12378;-76
2021/10/18 08:21:45;;;;;;;;;30.75;29.50;;;;;;;;5060183;28;11500;-72
2021/10/18 08:24:12;;;;;;;;;27.25;26.50;;;;;;;;5061668;28;12349;-72
2021/10/18 08:26:39;;;;;;;;;86.25;67.75;;;;;;;;5059898;28;11245;-74
2021/10/18 08:29:07;;;;;;;;;41.50;36.75;;;;;;;;5049025;28;12404;-75
2021/10/18 08:31:35;;;;;;;;;26.50;25.50;;;;;;;;5062015;28;11315;-74
2021/10/18 08:34:04;;;;;;;;;26.25;21.25;;;;;;;;5064654;28;10861;-72
2021/10/18 08:36:35;;;;;;;;;19.00;18.00;;;;;;;;5066329;28;11576;-72
2021/10/18 08:41:51;;;;;;;;;19.50;19.50;;;;;;;;5066912;28;10544;-72
2021/10/18 08:44:18;;;;;;;;;22.00;21.25;;;;;;;;5066820;28;10575;-74
2021/10/18 08:46:48;;;;;;;;;21.75;21.50;;;;;;;;5056213;28;10600;-73
2021/10/18 08:49:18;;;;;;;;;17.50;17.25;;;;;;;;5066738;28;10572;-73
2021/10/18 08:51:45;;;;;;;;;23.00;21.25;;;;;;;;5065754;28;10597;-72
2021/10/18 08:54:13;;;;;;;;;24.25;20.00;;;;;;;;5066631;28;10432;-73
2021/10/18 08:56:40;;;;;;;;;19.75;18.50;;;;;;;;5065870;28;10213;-73
2021/10/18 08:59:08;;;;;;;;;23.00;21.00;;;;;;;;5066592;28;10950;-73
2021/10/18 09:01:42;;;;;;;;;20.50;20.50;;;;;;;;5065424;28;10061;-73
2021/10/18 09:04:26;;;;;;;;;15.00;15.00;;;;;;;;5065488;28;10044;-73
2021/10/18 09:06:55;;;;;;;;;19.25;19.25;;;;;;;;5066552;28;10747;-72
2021/10/18 09:09:27;;;;;;;;;21.25;17.75;;;;;;;;5065636;28;9970;-73
2021/10/18 09:11:56;;;;;;;;;19.75;16.75;;;;;;;;5066832;28;9805;-73
2021/10/18 09:14:24;;;;;;;;;16.25;16.25;;;;;;;;5063465;28;9803;-73
2021/10/18 09:16:51;;;;;;;;;23.75;18.50;;;;;;;;5065917;28;9707;-72
2021/10/18 09:19:24;;;;;;;;;25.75;20.25;;;;;;;;5066119;28;9765;-73
2021/10/18 09:21:53;;;;;;;;;17.75;17.75;;;;;;;;5060084;28;9730;-73
2021/10/18 09:24:39;;;;;;;;;16.25;16.00;;;;;;;;5066281;28;9661;-72
2021/10/18 09:27:09;;;;;;;;;20.75;14.75;;;;;;;;5065566;28;9622;-73
2021/10/18 09:29:39;;;;;;;;;21.00;21.00;;;;;;;;5065960;28;9746;-72
2021/10/18 09:32:07;;;;;;;;;17.50;16.00;;;;;;;;5065419;28;9475;-73
2021/10/18 09:34:38;;;;;;;;;21.50;21.50;;;;;;;;5064977;28;9427;-73
2021/10/18 09:37:07;;;;;;;;;16.50;16.50;;;;;;;;5066286;28;9515;-73
2021/10/18 09:39:35;;;;;;;;;16.67;16.67;;;;;;;;5061203;28;9582;-73
2021/10/18 09:42:04;;;;;;;;;17.67;17.67;;;;;;;;5066258;28;9347;-74
2021/10/18 09:48:08;;;;;;;;;17.67;17.33;;;;;;;;5063347;28;9365;-73
2021/10/18 10:52:57;;;;;;;;;16.50;16.50;;;;;;;;5021547;28;8836;-72
2021/10/18 10:55:28;;;;;;;;;16.75;16.75;;;;;;;;5056456;28;8863;-74
2021/10/18 10:57:58;;;;;;;;;14.50;14.50;;;;;;;;5061505;28;8897;-73
2021/10/18 11:00:37;;;;;;;;;12.75;12.75;;;;;;;;5063649;28;8774;-75
2021/10/18 11:03:38;;;;;;;;;19.00;18.25;;;;;;;;5063145;28;8854;-72
2021/10/18 11:06:11;;;;;;;;;16.50;14.25;;;;;;;;5040902;28;8858;-73
2021/10/18 11:08:40;;;;;;;;;16.00;16.00;;;;;;;;5059591;28;8878;-72
2021/10/18 11:11:18;;;;;;;;;20.00;17.50;;;;;;;;5062254;28;8866;-74
2021/10/18 11:14:00;;;;;;;;;19.25;18.00;;;;;;;;5063743;28;8855;-73
2021/10/18 11:16:29;;;;;;;;;19.00;19.00;;;;;;;;5064203;28;8851;-73
2021/10/18 11:18:58;;;;;;;;;16.75;16.75;;;;;;;;5061464;28;8879;-73
2021/10/18 11:21:27;;;;;;;;;18.25;18.25;;;;;;;;5064242;28;8874;-72
2021/10/18 11:23:58;;;;;;;;;21.25;19.75;;;;;;;;5062611;28;8854;-73
2021/10/18 11:26:26;;;;;;;;;20.75;20.75;;;;;;;;5062910;28;9985;-74
2021/10/18 11:28:56;;;;;;;;;17.00;17.00;;;;;;;;5062503;28;8890;-74
2021/10/18 11:31:28;;;;;;;;;18.25;18.25;;;;;;;;5063297;28;8813;-74
2021/10/18 11:34:03;;;;;;;;;18.75;17.00;;;;;;;;5063678;28;8873;-75
2021/10/18 11:36:31;;;;;;;;;17.50;16.00;;;;;;;;5061076;28;8874;-74
2021/10/18 11:39:17;;;;;;;;;16.00;16.00;;;;;;;;5059525;28;8867;-75
2021/10/18 11:42:10;;;;;;;;;19.00;19.00;;;;;;;;5062426;28;8867;-74
2021/10/18 11:44:48;;;;;;;;;19.25;19.25;;;;;;;;5062684;28;8870;-74
2021/10/18 11:47:24;;;;;;;;;15.00;15.00;;;;;;;;5064245;28;8863;-75
2021/10/18 11:50:12;;;;;;;;;13.25;13.25;;;;;;;;5062513;28;9660;-74
2021/10/18 11:52:45;;;;;;;;;19.75;19.75;;;;;;;;5063846;28;8886;-74
2021/10/18 11:55:15;;;;;;;;;18.25;17.25;;;;;;;;5063497;28;8873;-74
2021/10/18 11:57:46;;;;;;;;;19.00;18.00;;;;;;;;5062862;28;8898;-75
2021/10/18 12:00:20;;;;;;;;;11.00;11.00;;;;;;;;5062946;28;8870;-74
2021/10/18 12:02:48;;;;;;;;;19.75;17.00;;;;;;;;5061329;28;8879;-74
2021/10/18 12:05:16;;;;;;;;;16.25;16.25;;;;;;;;5063625;28;8878;-74
2021/10/18 12:07:46;;;;;;;;;19.75;17.50;;;;;;;;5065385;28;9069;-74
2021/10/18 12:10:24;;;;;;;;;13.25;13.25;;;;;;;;5067637;28;9761;-73
2021/10/18 12:13:15;;;;;;;;;17.50;14.25;;;;;;;;5067971;28;8977;-74
2021/10/18 12:15:58;;;;;;;;;16.50;15.00;;;;;;;;5066225;28;8882;-74
2021/10/18 12:18:27;;;;;;;;;20.75;16.50;;;;;;;;5067790;28;8880;-73
2021/10/18 12:20:56;;;;;;;;;21.25;20.00;;;;;;;;5066328;28;8873;-73
2021/10/18 12:23:26;;;;;;;;;18.25;17.75;;;;;;;;5060208;28;8912;-73
2021/10/18 12:26:06;;;;;;;;;16.00;15.50;;;;;;;;5054192;28;8931;-73
2021/10/18 12:28:51;;;;;;;;;15.00;15.00;;;;;;;;5064325;28;8918;-74
2021/10/18 12:31:38;;;;;;;;;18.50;16.25;;;;;;;;5066621;28;8931;-73
2021/10/18 12:34:17;;;;;;;;;16.50;16.50;;;;;;;;5066993;28;8843;-73
2021/10/18 12:36:53;;;;;;;;;14.00;13.50;;;;;;;;5066448;28;8885;-73
2021/10/18 12:39:38;;;;;;;;;12.50;12.50;;;;;;;;5066825;28;8866;-73
2021/10/18 12:42:06;;;;;;;;;17.50;15.00;;;;;;;;5065931;28;8867;-73
2021/10/18 12:44:36;;;;;;;;;12.50;12.50;;;;;;;;5067275;28;8873;-73
2021/10/18 12:47:11;;;;;;;;;14.00;14.00;;;;;;;;5066606;28;8882;-73
2021/10/18 12:49:39;;;;;;;;;16.25;14.50;;;;;;;;5066371;28;8859;-73
2021/10/18 12:52:06;;;;;;;;;13.25;12.75;;;;;;;;5066902;28;8850;-74
2021/10/18 12:54:41;;;;;;;;;12.00;12.00;;;;;;;;5066522;28;8858;-72
2021/10/18 12:57:10;;;;;;;;;14.50;12.75;;;;;;;;5066688;28;8886;-73
2021/10/18 12:59:39;;;;;;;;;14.00;12.75;;;;;;;;5065404;28;8878;-73
2021/10/18 13:02:19;;;;;;;;;14.25;13.00;;;;;;;;5066279;28;8819;-73
2021/10/18 13:05:08;;;;;;;;;21.00;17.75;;;;;;;;5066560;28;8851;-73
2021/10/18 13:07:36;;;;;;;;;13.50;13.50;;;;;;;;5065905;28;8862;-72
2021/10/18 13:10:05;;;;;;;;;14.75;14.75;;;;;;;;5066711;28;8870;-73
2021/10/18 13:12:32;;;;;;;;;16.50;14.25;;;;;;;;5065558;28;8979;-73
2021/10/18 13:15:00;;;;;;;;;15.25;14.00;;;;;;;;5066722;28;8843;-75
2021/10/18 13:17:28;;;;;;;;;15.00;12.00;;;;;;;;5065747;28;8977;-75
2021/10/18 13:19:56;;;;;;;;;13.50;13.50;;;;;;;;5065265;28;8908;-74
2021/10/18 13:22:24;;;;;;;;;13.20;13.20;;;;;;;;5066675;28;8893;-73
2021/10/18 13:24:52;;;;;;;;;12.00;12.00;;;;;;;;5065374;28;8906;-73
2021/10/18 13:27:20;;;;;;;;;11.00;11.00;;;;;;;;5066205;28;8886;-75
2021/10/18 13:29:49;;;;;;;;;14.00;13.00;;;;;;;;5051786;28;8902;-74
2021/10/18 13:32:16;;;;;;;;;12.75;12.75;;;;;;;;5065162;28;8783;-75
2021/10/18 13:34:45;;;;;;;;;15.00;13.50;;;;;;;;5065203;28;8885;-73
2021/10/18 13:37:13;;;;;;;;;16.00;13.00;;;;;;;;5065642;28;9732;-73
2021/10/18 13:39:41;;;;;;;;;13.50;13.50;;;;;;;;5062631;28;8851;-74
2021/10/18 13:42:09;;;;;;;;;12.00;12.00;;;;;;;;5064789;28;8859;-73
2021/10/18 13:44:38;;;;;;;;;12.50;12.50;;;;;;;;5065979;28;8878;-73
2021/10/18 13:47:06;;;;;;;;;14.00;14.00;;;;;;;;5064754;28;8909;-74
2021/10/18 13:49:33;;;;;;;;;13.75;13.75;;;;;;;;5066375;28;8876;-73
2021/10/18 13:52:02;;;;;;;;;12.80;12.80;;;;;;;;5064416;28;8874;-74
2021/10/18 13:54:29;;;;;;;;;13.00;13.00;;;;;;;;5063972;28;8851;-74
2021/10/18 13:56:57;;;;;;;;;17.00;14.75;;;;;;;;5065485;28;8875;-72
2021/10/18 13:59:24;;;;;;;;;11.60;11.60;;;;;;;;5064493;28;8951;-72
2021/10/18 14:01:51;;;;;;;;;11.50;11.50;;;;;;;;5063795;28;8837;-73
2021/10/18 14:04:20;;;;;;;;;14.50;13.00;;;;;;;;5064523;28;8887;-75
2021/10/18 14:06:48;;;;;;;;;14.00;13.00;;;;;;;;5065502;28;8866;-73
2021/10/18 14:09:16;;;;;;;;;13.50;13.00;;;;;;;;5064273;28;8859;-72
2021/10/18 14:11:44;;;;;;;;;11.00;11.00;;;;;;;;5065178;28;8866;-74
2021/10/18 14:14:12;;;;;;;;;14.75;14.75;;;;;;;;5065558;28;8850;-73
2021/10/18 14:16:39;;;;;;;;;12.75;12.75;;;;;;;;5064068;28;8878;-74
2021/10/18 14:19:08;;;;;;;;;11.00;11.00;;;;;;;;5065572;28;9303;-74
2021/10/18 14:21:36;;;;;;;;;12.25;11.75;;;;;;;;5064396;28;8888;-74
2021/10/18 14:24:06;;;;;;;;;14.25;12.50;;;;;;;;5065422;28;8902;-74
2021/10/18 14:26:35;;;;;;;;;15.75;13.50;;;;;;;;5063647;28;8893;-73
2021/10/18 14:29:03;;;;;;;;;13.50;13.50;;;;;;;;5064653;28;8890;-73
2021/10/18 14:31:30;;;;;;;;;14.25;14.25;;;;;;;;5063519;28;8814;-74
2021/10/18 14:33:58;;;;;;;;;17.50;15.75;;;;;;;;5064170;28;8866;-73
2021/10/18 14:36:25;;;;;;;;;16.25;15.00;;;;;;;;5065117;28;8882;-74
2021/10/18 14:38:53;;;;;;;;;19.50;16.75;;;;;;;;5063038;28;8870;-73
2021/10/18 14:41:23;;;;;;;;;17.00;14.75;;;;;;;;5063712;28;8889;-73
2021/10/18 14:43:53;;;;;;;;;13.25;13.25;;;;;;;;5062257;28;9006;-74
2021/10/18 14:46:22;;;;;;;;;13.50;13.50;;;;;;;;5064315;28;8842;-73
2021/10/18 14:48:50;;;;;;;;;12.75;12.75;;;;;;;;5064937;28;8905;-75
2021/10/18 14:51:18;;;;;;;;;13.00;13.00;;;;;;;;5063959;28;8994;-73
2021/10/18 14:53:50;;;;;;;;;14.25;13.75;;;;;;;;5064382;28;8877;-74
2021/10/18 14:56:18;;;;;;;;;14.50;14.50;;;;;;;;5063535;28;8952;-74
2021/10/18 14:58:45;;;;;;;;;15.25;15.25;;;;;;;;5064586;28;8901;-74
2021/10/18 15:01:14;;;;;;;;;13.00;13.00;;;;;;;;5062717;28;8813;-73
2021/10/18 15:03:41;;;;;;;;;15.50;14.00;;;;;;;;5064649;28;8881;-74
2021/10/18 15:06:09;;;;;;;;;14.00;13.50;;;;;;;;5064100;28;9682;-74
2021/10/18 15:08:36;;;;;;;;;17.50;17.50;;;;;;;;5063421;28;8985;-73
2021/10/18 15:11:04;;;;;;;;;13.00;13.00;;;;;;;;5064397;28;9625;-74
2021/10/18 15:13:32;;;;;;;;;16.50;14.75;;;;;;;;5062486;28;8874;-74
2021/10/18 15:16:00;;;;;;;;;16.25;16.25;;;;;;;;5063749;28;8885;-72
2021/10/18 15:18:29;;;;;;;;;13.75;13.75;;;;;;;;5061257;28;8867;-74
2021/10/18 15:20:57;;;;;;;;;16.50;15.25;;;;;;;;5063444;28;8947;-74
2021/10/18 15:23:24;;;;;;;;;11.00;11.00;;;;;;;;5063283;28;8877;-73
2021/10/18 15:25:52;;;;;;;;;16.75;14.75;;;;;;;;5062766;28;8867;-73
2021/10/18 15:28:19;;;;;;;;;16.25;13.25;;;;;;;;5063401;28;8873;-73
2021/10/18 15:30:46;;;;;;;;;14.25;13.50;;;;;;;;5061122;28;8819;-73
2021/10/18 15:33:14;;;;;;;;;13.50;12.50;;;;;;;;5063791;28;8885;-73
2021/10/18 15:35:42;;;;;;;;;14.25;14.25;;;;;;;;5061020;28;8949;-75
2021/10/18 15:38:10;;;;;;;;;16.00;16.00;;;;;;;;5063500;28;8882;-75
2021/10/18 15:40:37;;;;;;;;;14.75;14.25;;;;;;;;5063392;28;8859;-74
2021/10/18 15:43:04;;;;;;;;;14.75;14.75;;;;;;;;5062439;28;9648;-72